Time;durP1;ratioP1;P1;durP2;ratioP2;P2;SDS_P1;SDS_P2;PMS_P1;PMS_P2;Temp;Humidity;BMP_temperature;BMP_pressure;BME280_temperature;BME280_humidity;BME280_pressure;Samples;Min_cycle;Max_cycle;Signal;HPM_P1;HPM_P2
2023/06/06 00:02:42;;;;;;;;;;;;;;;19.53;79.54;100796.13;5015321;28;20387;-77
2023/06/06 00:05:27;;;;;;;;;;;;;;;19.56;79.66;100792.59;5014183;28;19913;-77
2023/06/06 00:08:13;;;;;;;;;;;;;;;19.64;79.04;100791.53;5009970;28;20369;-77
2023/06/06 00:10:57;;;;;;;;;;;;;;;19.64;79.72;100790.75;5015149;28;19913;-77
2023/06/06 00:13:42;;;;;;;;;;;;;;;19.63;79.51;100794.66;5014048;28;19913;-77
2023/06/06 00:16:32;;;;;;;;;;;;;;;19.69;79.35;100793.19;5013231;28;20288;-78
2023/06/06 00:19:17;;;;;;;;;;;;;;;19.73;79.18;100793.22;5015629;28;19913;-78
2023/06/06 00:22:02;;;;;;;;;;;;;;;19.71;79.07;100795.56;5014031;28;19914;-78
2023/06/06 00:24:46;;;;;;;;;;;;;;;19.66;79.12;100793.91;5016957;28;19913;-77
2023/06/06 00:27:32;;;;;;;;;;;;;;;19.64;78.70;100788.00;4988252;28;20328;-77
2023/06/06 00:30:17;;;;;;;;;;;;;;;19.54;78.94;100794.97;4985992;28;19922;-77
2023/06/06 00:33:03;;;;;;;;;;;;;;;19.52;79.72;100794.53;4986275;28;19914;-77
2023/06/06 00:35:48;;;;;;;;;;;;;;;19.52;78.64;100794.53;4976742;28;19918;-77
2023/06/06 00:38:33;;;;;;;;;;;;;;;19.60;78.74;100789.91;4974504;28;20381;-78
2023/06/06 00:41:17;;;;;;;;;;;;;;;19.45;78.39;100788.13;4988718;28;19922;-78
2023/06/06 00:44:02;;;;;;;;;;;;;;;19.55;78.43;100790.25;4971325;28;19913;-78
2023/06/06 00:46:47;;;;;;;;;;;;;;;19.36;79.28;100780.09;4975010;28;19925;-78
2023/06/06 00:49:31;;;;;;;;;;;;;;;19.35;79.19;100783.22;4978753;28;19914;-78
2023/06/06 00:52:17;;;;;;;;;;;;;;;19.30;79.79;100786.31;4978992;28;19913;-77
2023/06/06 00:55:02;;;;;;;;;;;;;;;19.28;80.03;100783.13;4983435;28;19913;-76
2023/06/06 00:57:47;;;;;;;;;;;;;;;19.10;80.75;100783.63;4989335;28;19913;-78
2023/06/06 01:00:36;;;;;;;;;;;;;;;19.09;81.49;100781.28;4990559;28;19914;-78
2023/06/06 01:03:24;;;;;;;;;;;;;;;19.17;80.51;100783.75;4963144;28;20289;-78
2023/06/06 01:06:08;;;;;;;;;;;;;;;19.08;80.91;100768.66;4985551;28;19913;-78
2023/06/06 01:08:56;;;;;;;;;;;;;;;19.14;80.47;100778.19;5008687;28;19918;-78
2023/06/06 01:11:47;;;;;;;;;;;;;;;19.13;80.51;100776.59;4991043;28;19914;-78
2023/06/06 01:14:51;;;;;;;;;;;;;;;19.08;80.01;100774.16;4990099;28;19992;-78
2023/06/06 01:17:36;;;;;;;;;;;;;;;19.12;80.71;100775.00;4988011;28;19917;-78
2023/06/06 01:20:23;;;;;;;;;;;;;;;19.07;80.60;100769.81;4991127;28;19914;-78
2023/06/06 01:23:10;;;;;;;;;;;;;;;19.12;80.46;100761.22;4992297;28;19914;-78
2023/06/06 01:25:54;;;;;;;;;;;;;;;19.04;80.56;100767.81;4989853;28;20292;-78
2023/06/06 01:28:39;;;;;;;;;;;;;;;19.00;80.33;100764.97;4963583;28;20309;-78
2023/06/06 01:31:25;;;;;;;;;;;;;;;19.07;80.06;100772.56;4981185;28;19921;-78
2023/06/06 01:34:15;;;;;;;;;;;;;;;19.04;79.26;100767.81;4986796;28;20288;-78
2023/06/06 01:37:10;;;;;;;;;;;;;;;19.05;80.26;100769.38;4993909;28;19913;-78
2023/06/06 01:39:56;;;;;;;;;;;;;;;19.00;80.66;100766.94;4982749;28;20377;-77
2023/06/06 01:42:45;;;;;;;;;;;;;;;19.12;79.60;100763.97;4985029;28;19913;-78
2023/06/06 01:45:33;;;;;;;;;;;;;;;19.05;80.12;100767.41;5039163;22;20993;-78
2023/06/06 01:48:18;;;;;;;;;;;;;;;18.95;80.63;100770.00;4976121;28;19922;-76
2023/06/06 01:51:03;;;;;;;;;;;;;;;18.86;81.82;100763.97;4978373;28;19914;-78
2023/06/06 01:53:48;;;;;;;;;;;;;;;18.97;80.66;100768.50;4975040;28;20272;-76
2023/06/06 01:56:35;;;;;;;;;;;;;;;18.91;80.70;100760.91;4971409;28;19918;-78
2023/06/06 01:59:20;;;;;;;;;;;;;;;18.88;80.88;100756.16;4961678;28;19913;-76
2023/06/06 02:02:05;;;;;;;;;;;;;;;18.85;80.95;100756.88;4984346;28;19914;-77
2023/06/06 02:04:50;;;;;;;;;;;;;;;18.72;82.26;100746.06;4960170;28;19922;-77
2023/06/06 02:07:35;;;;;;;;;;;;;;;18.57;82.78;100749.75;4965461;28;19918;-77
2023/06/06 02:10:22;;;;;;;;;;;;;;;18.54;83.33;100746.94;4996273;28;19914;-77
2023/06/06 02:13:07;;;;;;;;;;;;;;;18.47;83.72;100755.84;4978580;28;19913;-77
2023/06/06 02:15:51;;;;;;;;;;;;;;;18.44;83.39;100751.06;4964577;28;20369;-77
2023/06/06 02:18:36;;;;;;;;;;;;;;;18.47;83.40;100749.53;4968276;28;19914;-77
2023/06/06 02:21:20;;;;;;;;;;;;;;;18.46;83.29;100751.50;4961594;28;19913;-77
2023/06/06 02:24:07;;;;;;;;;;;;;;;18.49;83.61;100750.75;4994946;28;19914;-77
2023/06/06 02:26:53;;;;;;;;;;;;;;;18.48;83.19;100754.69;4976455;28;19914;-76
2023/06/06 02:29:38;;;;;;;;;;;;;;;18.74;81.41;100754.72;4959080;28;19926;-77
2023/06/06 02:32:23;;;;;;;;;;;;;;;18.81;81.06;100743.03;4962092;28;19914;-77
2023/06/06 02:35:08;;;;;;;;;;;;;;;18.97;80.07;100743.69;4956180;28;19940;-76
2023/06/06 02:37:52;;;;;;;;;;;;;;;19.13;79.32;100749.03;4958662;28;19923;-76
2023/06/06 02:40:37;;;;;;;;;;;;;;;19.10;78.60;100750.56;4976129;28;19914;-78
2023/06/06 02:43:22;;;;;;;;;;;;;;;19.14;78.33;100745.13;4980879;28;19914;-78
2023/06/06 02:46:07;;;;;;;;;;;;;;;19.25;78.04;100742.50;4981788;28;19914;-78
2023/06/06 02:48:52;;;;;;;;;;;;;;;19.28;77.81;100744.50;4963887;28;19918;-78
2023/06/06 02:51:37;;;;;;;;;;;;;;;19.23;78.19;100748.41;4965304;28;19914;-78
2023/06/06 02:54:22;;;;;;;;;;;;;;;19.03;78.52;100744.16;4964278;28;19914;-78
2023/06/06 02:57:07;;;;;;;;;;;;;;;19.09;79.28;100740.72;4990317;28;19914;-77
2023/06/06 02:59:52;;;;;;;;;;;;;;;19.25;78.36;100751.56;4967928;28;19914;-78
2023/06/06 03:02:36;;;;;;;;;;;;;;;19.15;78.23;100743.94;4993882;28;19913;-78
2023/06/06 03:05:23;;;;;;;;;;;;;;;18.71;80.09;100749.97;4971772;28;19914;-78
2023/06/06 03:08:08;;;;;;;;;;;;;;;18.52;81.79;100744.53;4983429;28;19918;-78
2023/06/06 03:10:52;;;;;;;;;;;;;;;18.62;81.70;100746.69;4982924;28;19918;-78
2023/06/06 03:13:37;;;;;;;;;;;;;;;18.76;80.25;100751.63;4966892;28;19914;-78
2023/06/06 03:16:25;;;;;;;;;;;;;;;18.61;81.56;100741.53;4972718;28;20398;-76
2023/06/06 03:19:11;;;;;;;;;;;;;;;18.55;81.66;100731.97;4976639;28;19914;-78
2023/06/06 03:21:59;;;;;;;;;;;;;;;18.35;83.43;100736.75;4970435;28;19914;-77
2023/06/06 03:24:45;;;;;;;;;;;;;;;18.28;83.76;100737.44;4975190;28;19914;-77
2023/06/06 03:27:30;;;;;;;;;;;;;;;18.20;84.67;100732.16;4966033;28;19922;-78
2023/06/06 03:30:16;;;;;;;;;;;;;;;18.27;84.29;100729.53;4975765;28;19914;-78
2023/06/06 03:33:03;;;;;;;;;;;;;;;18.31;84.00;100720.16;4966157;28;19914;-78
2023/06/06 03:35:48;;;;;;;;;;;;;;;18.41;83.75;100728.97;4960196;28;19915;-78
2023/06/06 03:38:32;;;;;;;;;;;;;;;18.39;83.66;100726.56;4965610;28;19914;-78
2023/06/06 03:41:20;;;;;;;;;;;;;;;18.57;81.84;100722.22;4950440;29;19915;-78
2023/06/06 03:44:06;;;;;;;;;;;;;;;18.64;79.46;100716.78;4979785;28;19918;-77
2023/06/06 03:46:51;;;;;;;;;;;;;;;18.55;79.02;100713.50;4988435;28;19914;-78
2023/06/06 03:49:37;;;;;;;;;;;;;;;18.58;79.39;100723.81;4963446;28;19918;-78
2023/06/06 03:52:22;;;;;;;;;;;;;;;18.65;78.73;100718.38;4949028;29;20374;-78
2023/06/06 03:55:07;;;;;;;;;;;;;;;18.72;78.67;100718.50;4977347;28;19914;-78
2023/06/06 03:57:53;;;;;;;;;;;;;;;18.76;78.90;100713.06;4971686;28;19914;-78
2023/06/06 04:00:39;;;;;;;;;;;;;;;18.73;79.51;100717.34;4954736;28;20296;-78
2023/06/06 04:03:25;;;;;;;;;;;;;;;18.72;80.33;100714.97;4994685;28;19914;-78
2023/06/06 04:06:11;;;;;;;;;;;;;;;18.32;81.72;100715.47;4961994;28;19914;-78
2023/06/06 04:08:56;;;;;;;;;;;;;;;18.33;83.35;100723.34;4968364;28;19918;-77
2023/06/06 04:11:41;;;;;;;;;;;;;;;18.48;81.86;100716.13;4969045;28;20324;-78
2023/06/06 04:14:26;;;;;;;;;;;;;;;18.59;81.30;100724.59;4958040;28;19914;-78
2023/06/06 04:17:10;;;;;;;;;;;;;;;18.45;81.69;100719.59;4960903;28;19914;-78
2023/06/06 04:19:55;;;;;;;;;;;;;;;18.17;83.57;100719.13;4967980;28;19915;-76
2023/06/06 04:22:41;;;;;;;;;;;;;;;18.30;83.64;100724.06;4963947;28;19922;-77
2023/06/06 04:25:25;;;;;;;;;;;;;;;18.29;84.01;100727.19;4957510;28;19915;-76
2023/06/06 04:28:11;;;;;;;;;;;;;;;18.34;83.60;100729.63;4962278;28;19918;-78
2023/06/06 04:30:55;;;;;;;;;;;;;;;18.15;83.63;100726.94;4958776;28;19919;-76
2023/06/06 04:33:42;;;;;;;;;;;;;;;18.09;83.85;100726.44;4967161;28;19914;-78
2023/06/06 04:36:27;;;;;;;;;;;;;;;18.05;84.54;100733.03;4966119;28;19921;-78
2023/06/06 04:39:12;;;;;;;;;;;;;;;18.03;85.70;100730.66;4964573;28;19915;-78
2023/06/06 04:41:58;;;;;;;;;;;;;;;18.32;86.17;100731.97;4967870;28;19919;-78
2023/06/06 04:44:46;;;;;;;;;;;;;;;18.72;83.06;100735.03;4965041;28;19914;-78
2023/06/06 04:47:31;;;;;;;;;;;;;;;19.12;80.50;100730.91;4968195;28;20369;-77
2023/06/06 04:50:19;;;;;;;;;;;;;;;19.01;79.83;100736.25;4969479;28;19920;-77
2023/06/06 04:53:04;;;;;;;;;;;;;;;18.82;81.05;100735.56;4961049;28;19914;-79
2023/06/06 04:55:49;;;;;;;;;;;;;;;18.75;83.15;100739.00;4954010;28;20385;-78
2023/06/06 04:58:34;;;;;;;;;;;;;;;18.99;81.44;100737.81;4962672;28;19914;-77
2023/06/06 05:01:19;;;;;;;;;;;;;;;19.07;81.95;100745.00;4962682;28;19918;-78
2023/06/06 05:04:04;;;;;;;;;;;;;;;19.23;80.36;100738.16;4966747;28;19914;-77
2023/06/06 05:06:48;;;;;;;;;;;;;;;19.44;78.44;100747.91;4966197;28;19914;-77
2023/06/06 05:09:33;;;;;;;;;;;;;;;19.62;78.16;100743.41;4946655;28;20398;-77
2023/06/06 05:12:17;;;;;;;;;;;;;;;19.28;79.67;100741.75;4957972;28;19914;-77
2023/06/06 05:15:02;;;;;;;;;;;;;;;19.09;81.04;100732.47;4969567;28;19922;-76
2023/06/06 05:17:55;;;;;;;;;;;;;;;18.95;82.05;100740.50;4965515;28;19921;-76
2023/06/06 05:20:39;;;;;;;;;;;;;;;18.99;83.25;100743.31;4949665;28;19914;-77
2023/06/06 05:23:25;;;;;;;;;;;;;;;19.05;82.98;100742.63;4976285;28;19918;-78
2023/06/06 05:26:10;;;;;;;;;;;;;;;19.06;84.14;100748.94;4953002;28;19914;-76
2023/06/06 05:28:54;;;;;;;;;;;;;;;19.39;81.48;100742.69;4961484;28;20557;-77
2023/06/06 05:31:39;;;;;;;;;;;;;;;19.43;81.22;100743.53;4966950;28;19914;-77
2023/06/06 05:34:24;;;;;;;;;;;;;;;19.27;83.11;100743.72;4977582;28;19914;-77
2023/06/06 05:37:08;;;;;;;;;;;;;;;19.86;79.30;100739.38;4977405;28;19914;-78
2023/06/06 05:39:53;;;;;;;;;;;;;;;20.15;76.97;100740.47;4957127;28;19922;-78
2023/06/06 05:42:38;;;;;;;;;;;;;;;20.47;75.56;100739.59;4958529;28;20293;-77
2023/06/06 05:45:23;;;;;;;;;;;;;;;20.66;74.43;100738.59;4956741;28;19914;-78
2023/06/06 05:48:07;;;;;;;;;;;;;;;20.73;73.79;100737.84;4957943;28;20385;-78
2023/06/06 05:50:52;;;;;;;;;;;;;;;20.83;72.89;100740.69;4969312;28;19915;-79
2023/06/06 05:53:46;;;;;;;;;;;;;;;20.93;72.83;100748.25;4971396;28;19914;-78
2023/06/06 05:56:31;;;;;;;;;;;;;;;20.83;73.76;100748.97;4971344;28;19914;-77
2023/06/06 05:59:15;;;;;;;;;;;;;;;20.80;73.77;100749.75;4953690;28;19919;-78
2023/06/06 06:02:00;;;;;;;;;;;;;;;20.78;74.30;100751.31;4956983;28;19918;-78
2023/06/06 06:04:45;;;;;;;;;;;;;;;20.74;73.96;100756.03;4996488;28;19914;-77
2023/06/06 06:07:29;;;;;;;;;;;;;;;20.72;73.56;100756.41;4979439;28;19914;-77
2023/06/06 06:10:14;;;;;;;;;;;;;;;20.80;73.07;100751.72;4969066;28;19922;-78
2023/06/06 06:13:00;;;;;;;;;;;;;;;21.13;71.87;100753.56;4993794;28;19914;-79
2023/06/06 06:15:44;;;;;;;;;;;;;;;21.34;70.81;100746.19;4981562;28;19914;-78
2023/06/06 06:18:29;;;;;;;;;;;;;;;21.70;69.00;100754.63;4985779;28;19914;-78
2023/06/06 06:21:13;;;;;;;;;;;;;;;21.93;67.28;100766.22;4992316;28;19914;-78
2023/06/06 06:23:58;;;;;;;;;;;;;;;21.76;66.76;100762.19;4981426;28;19914;-78
2023/06/06 06:26:42;;;;;;;;;;;;;;;21.62;67.48;100769.66;4993454;28;19917;-78
2023/06/06 06:29:27;;;;;;;;;;;;;;;21.71;67.61;100767.31;4990420;28;19918;-79
2023/06/06 06:32:11;;;;;;;;;;;;;;;21.88;66.98;100774.09;4962815;28;19914;-77
2023/06/06 06:34:56;;;;;;;;;;;;;;;22.14;66.90;100768.28;4974759;28;19914;-78
2023/06/06 06:37:40;;;;;;;;;;;;;;;22.23;65.80;100773.44;4963923;28;19917;-78
2023/06/06 06:40:25;;;;;;;22.63;7.32;;;;;;;21.96;66.56;100771.00;4987484;28;20416;-77
2023/06/06 06:43:10;;;;;;;12.40;5.75;;;;;;;21.73;67.33;100776.03;4947590;29;20094;-75
2023/06/06 06:46:04;;;;;;;15.17;4.67;;;;;;;21.61;67.62;100785.47;4949626;28;20050;-76
2023/06/06 06:48:50;;;;;;;8.13;5.00;;;;;;;21.53;68.05;100780.28;4947170;29;20968;-75
2023/06/06 06:51:36;;;;;;;6.72;5.03;;;;;;;21.34;68.85;100793.22;4958633;29;20050;-75
2023/06/06 06:54:22;;;;;;;5.93;4.07;;;;;;;21.27;69.06;100781.31;4976166;28;20073;-75
2023/06/06 06:57:06;;;;;;;6.55;5.15;;;;;;;21.25;68.89;100784.47;4953637;28;20054;-76
2023/06/06 06:59:52;;;;;;;8.45;3.35;;;;;;;21.29;68.81;100784.47;4967016;28;20046;-75
2023/06/06 07:02:39;;;;;;;7.60;3.90;;;;;;;21.28;68.76;100783.69;4939927;29;20055;-78
2023/06/06 07:05:24;;;;;;;7.45;3.92;;;;;;;21.29;68.96;100790.81;4940309;29;20054;-76
2023/06/06 07:08:09;;;;;;;10.20;4.22;;;;;;;21.31;68.81;100791.22;4951305;28;20075;-77
2023/06/06 07:10:54;;;;;;;5.82;3.85;;;;;;;21.33;68.77;100782.56;4958443;28;20050;-75
2023/06/06 07:13:38;;;;;;;4.43;3.55;;;;;;;21.34;68.87;100782.13;4941789;29;20059;-76
2023/06/06 07:16:25;;;;;;;6.78;4.35;;;;;;;21.27;68.83;100782.13;4948393;29;20058;-77
2023/06/06 07:19:10;;;;;;;4.68;3.40;;;;;;;21.32;68.74;100787.28;4945771;29;20050;-77
2023/06/06 07:21:56;;;;;;;4.95;3.67;;;;;;;21.32;69.10;100784.53;4963882;28;20054;-77
2023/06/06 07:24:41;;;;;;;7.93;4.25;;;;;;;21.35;68.86;100785.72;4945903;29;20509;-77
2023/06/06 07:27:27;;;;;;;9.02;4.53;;;;;;;21.44;67.94;100785.34;4958401;29;20054;-77
2023/06/06 07:30:12;;;;;;;6.50;4.50;;;;;;;21.44;66.55;100777.06;4962121;28;20069;-77
2023/06/06 07:32:57;;;;;;;320.42;68.05;;;;;;;21.58;67.58;100779.91;4957380;29;20548;-77
2023/06/06 07:35:42;;;;;;;112.80;26.75;;;;;;;21.63;67.07;100771.25;4979763;28;20043;-78
2023/06/06 07:38:27;;;;;;;20.73;7.22;;;;;;;21.64;67.03;100778.34;4961982;29;20047;-77
2023/06/06 07:41:11;;;;;;;13.88;4.53;;;;;;;21.58;67.57;100777.16;4975513;28;20521;-77
2023/06/06 07:43:57;;;;;;;10.52;4.75;;;;;;;21.58;67.25;100777.94;4962967;29;20050;-77
2023/06/06 07:46:42;;;;;;;6.38;3.95;;;;;;;21.52;67.57;100778.69;5035521;22;20057;-79
2023/06/06 07:49:27;;;;;;;9.55;3.78;;;;;;;21.49;67.61;100771.94;4997226;28;20050;-79
2023/06/06 07:52:12;;;;;;;4.63;3.30;;;;;;;21.52;67.67;100775.91;4996997;28;20057;-79
2023/06/06 07:54:58;;;;;;;6.97;3.97;;;;;;;21.49;67.75;100773.91;4996147;28;20049;-80
2023/06/06 07:57:45;;;;;;;6.15;4.57;;;;;;;21.50;67.75;100776.31;4995647;28;20053;-80
2023/06/06 08:00:30;;;;;;;6.60;5.07;;;;;;;21.49;67.35;100771.16;5001202;28;20045;-79
2023/06/06 08:03:15;;;;;;;6.28;4.13;;;;;;;21.49;67.45;100771.16;4997155;28;20065;-79
2023/06/06 08:05:59;;;;;;;7.15;5.25;;;;;;;21.52;67.33;100773.16;4998273;28;20049;-80
2023/06/06 08:08:51;;;;;;;18.98;5.47;;;;;;;21.56;67.43;100768.44;4996948;28;20069;-79
2023/06/06 08:11:36;;;;;;;5.63;4.05;;;;;;;21.62;66.99;100766.88;4985760;28;20050;-80
2023/06/06 08:14:20;;;;;;;5.80;4.35;;;;;;;21.66;66.56;100767.69;4998936;28;20052;-80
2023/06/06 08:17:06;;;;;;;7.53;5.30;;;;;;;21.69;66.27;100769.66;5007753;28;20049;-80
2023/06/06 08:19:50;;;;;;;5.90;4.05;;;;;;;21.64;66.41;100767.25;4990025;28;20508;-79
2023/06/06 08:22:37;;;;;;;7.00;4.22;;;;;;;21.63;65.97;100762.94;4990366;28;20054;-79
2023/06/06 08:25:22;;;;;;;4.55;3.22;;;;;;;21.67;65.91;100766.50;4996146;28;20548;-79
2023/06/06 08:28:07;;;;;;;5.07;3.58;;;;;;;21.62;65.24;100772.41;4993589;28;20513;-79
2023/06/06 08:30:52;;;;;;;9.18;3.97;;;;;;;21.69;64.92;100766.88;4996091;28;20041;-79
2023/06/06 08:33:37;;;;;;;7.13;3.90;;;;;;;21.75;64.58;100768.91;4994956;28;20046;-79
2023/06/06 08:36:22;;;;;;;6.93;4.05;;;;;;;21.90;64.45;100764.22;4999319;28;20057;-80
2023/06/06 08:39:07;;;;;;;6.97;4.50;;;;;;;21.97;63.80;100761.50;4995402;28;20045;-79
2023/06/06 08:41:53;;;;;;;6.65;3.95;;;;;;;21.99;64.05;100770.19;4993930;28;20057;-79
2023/06/06 08:44:38;;;;;;;6.80;3.20;;;;;;;21.86;64.78;100774.47;4974048;28;20054;-80
2023/06/06 08:47:26;;;;;;;8.02;3.72;;;;;;;21.85;65.36;100775.66;4976642;28;20453;-80
2023/06/06 08:50:11;;;;;;;5.40;3.03;;;;;;;21.79;65.44;100774.44;4974725;28;20050;-80
2023/06/06 08:53:04;;;;;;;5.35;3.75;;;;;;;21.75;65.11;100774.44;4975300;28;20054;-80
2023/06/06 08:55:49;;;;;;;7.50;4.28;;;;;;;21.81;65.43;100777.63;4977730;28;20053;-80
2023/06/06 08:58:36;;;;;;;8.82;3.63;;;;;;;21.85;63.65;100772.09;4961804;28;20073;-80
2023/06/06 09:01:21;;;;;;;3.08;2.25;;;;;;;21.88;64.90;100777.66;4975086;28;20054;-80
2023/06/06 09:04:07;;;;;;;4.85;2.50;;;;;;;21.92;64.78;100777.66;4978526;28;20054;-80
2023/06/06 09:06:56;;;;;;;5.35;2.58;;;;;;;21.85;65.04;100780.41;4977598;28;20049;-80
2023/06/06 09:09:45;;;;;;;5.78;3.08;;;;;;;21.82;65.22;100773.69;4980531;28;20046;-79
2023/06/06 09:12:39;;;;;;;4.05;2.80;;;;;;;21.82;64.95;100772.88;4975540;28;20057;-79
2023/06/06 09:15:25;;;;;;;5.03;2.95;;;;;;;21.80;65.49;100769.69;4977087;28;20066;-80
2023/06/06 09:18:10;;;;;;;6.15;3.17;;;;;;;21.80;64.20;100767.72;4979154;28;20054;-79
2023/06/06 09:20:56;;;;;;;3.83;2.65;;;;;;;21.80;64.78;100764.97;4975575;28;20079;-79
2023/06/06 09:23:41;;;;;;;4.70;2.28;;;;;;;21.85;64.72;100770.13;4976326;28;20046;-79
2023/06/06 09:26:27;;;;;;;4.40;2.35;;;;;;;21.92;64.73;100766.59;4975937;28;20050;-79
2023/06/06 09:29:12;;;;;;;7.82;4.57;;;;;;;22.00;63.85;100765.44;4977306;28;20045;-79
2023/06/06 09:32:00;;;;;;;3.63;2.60;;;;;;;21.94;64.08;100765.03;4975033;28;20050;-79
2023/06/06 09:34:44;;;;;;;3.13;2.20;;;;;;;21.92;63.85;100761.84;4975428;28;20066;-79
2023/06/06 09:37:30;;;;;;;5.43;2.88;;;;;;;21.99;63.87;100758.34;4975725;28;20049;-79
2023/06/06 09:40:19;;;;;;;4.05;3.05;;;;;;;22.02;63.99;100758.34;4993475;28;20042;-79
2023/06/06 09:43:06;;;;;;;8.73;4.63;;;;;;;22.23;62.70;100754.84;4995149;28;20073;-80
2023/06/06 09:45:54;;;;;;;4.82;3.22;;;;;;;22.32;62.55;100765.53;4995124;28;20045;-79
2023/06/06 09:48:39;;;;;;;5.95;3.70;;;;;;;22.34;62.17;100754.84;4993659;28;20046;-79
2023/06/06 09:51:24;;;;;;;9.15;4.93;;;;;;;22.43;61.75;100746.94;4995494;28;20049;-79
2023/06/06 09:54:10;;;;;;;6.30;2.55;;;;;;;22.22;62.48;100749.69;4980246;28;20069;-79
2023/06/06 09:56:55;;;;;;;4.82;2.78;;;;;;;22.38;62.04;100742.59;4983520;28;20042;-79
2023/06/06 09:59:43;;;;;;;5.60;3.35;;;;;;;22.41;61.97;100743.75;4988860;28;20445;-79
2023/06/06 10:02:31;;;;;;;3.95;2.80;;;;;;;22.20;62.52;100738.22;4989826;28;20129;-78
2023/06/06 10:05:16;;;;;;;8.45;5.72;;;;;;;22.64;58.05;100735.88;4992494;28;20101;-79
2023/06/06 10:08:05;;;;;;;5.75;4.50;;;;;;;22.78;59.34;100738.66;4990785;28;20050;-79
2023/06/06 10:10:50;;;;;;;6.80;3.30;;;;;;;22.47;60.77;100731.91;4983238;28;20422;-79
2023/06/06 10:13:36;;;;;;;4.18;2.95;;;;;;;22.44;60.80;100737.44;4981745;28;20045;-79
2023/06/06 10:16:21;;;;;;;3.58;2.72;;;;;;;22.33;61.30;100739.41;4995463;28;20057;-79
2023/06/06 10:19:08;;;;;;;6.90;3.05;;;;;;;22.18;62.36;100731.09;4993825;28;20046;-80
2023/06/06 10:21:54;;;;;;;5.13;2.45;;;;;;;22.17;62.90;100734.25;4995794;28;20065;-79
2023/06/06 10:24:40;;;;;;;6.50;3.15;;;;;;;22.12;63.67;100737.41;5001988;28;20057;-79
2023/06/06 10:27:29;;;;;;;4.53;3.35;;;;;;;22.07;63.68;100740.56;4984983;28;20065;-79
2023/06/06 10:30:17;;;;;;;6.70;4.15;;;;;;;22.28;62.72;100737.81;4997904;28;20402;-79
2023/06/06 10:33:27;;;;;;;5.15;3.75;;;;;;;22.26;62.75;100742.97;4988736;28;20073;-79
2023/06/06 10:36:16;;;;;;;7.00;4.35;;;;;;;22.24;62.86;100739.00;4999901;28;20041;-79
2023/06/06 10:39:23;;;;;;;5.25;3.67;;;;;;;22.37;62.02;100738.22;5002945;28;20049;-79
2023/06/06 10:42:10;;;;;;;4.20;2.65;;;;;;;22.31;62.51;100727.91;4996173;28;20042;-79
2023/06/06 10:44:55;;;;;;;7.85;3.25;;;;;;;22.51;61.27;100726.34;4998415;28;20045;-79
2023/06/06 10:47:44;;;;;;;6.03;3.05;;;;;;;22.38;61.59;100723.19;4991511;28;20418;-79
2023/06/06 10:50:28;;;;;;;5.80;3.40;;;;;;;22.64;60.24;100715.66;4999064;28;20053;-79
2023/06/06 10:53:16;;;;;;;4.15;3.05;;;;;;;22.56;60.80;100710.13;4998149;28;20057;-79
2023/06/06 10:56:06;;;;;;;4.07;2.70;;;;;;;22.57;59.64;100708.13;4989333;28;20049;-79
2023/06/06 10:58:51;;;;;;;5.15;2.78;;;;;;;23.02;58.75;100707.31;4986464;28;20041;-79
2023/06/06 11:01:36;;;;;;;9.82;4.75;;;;;;;23.02;58.95;100707.31;4998108;28;20049;-81
2023/06/06 11:04:23;;;;;;;5.75;3.30;;;;;;;22.76;59.58;100699.44;4999086;28;20037;-81
2023/06/06 11:07:16;;;;;;;4.00;2.80;;;;;;;22.72;59.36;100704.19;4998538;28;20226;-79
2023/06/06 11:10:01;;;;;;;4.60;2.78;;;;;;;22.38;60.74;100701.03;5004337;28;20058;-80
2023/06/06 11:12:50;;;;;;;4.28;2.75;;;;;;;22.34;61.37;100704.97;5001644;28;20401;-78
2023/06/06 11:15:35;;;;;;;5.47;3.05;;;;;;;22.30;62.32;100709.72;4999182;28;20049;-79
2023/06/06 11:18:36;;;;;;;6.15;3.65;;;;;;;22.26;63.20;100706.16;5003971;28;20072;-79
2023/06/06 11:21:24;;;;;;;8.68;4.15;;;;;;;22.22;63.98;100699.81;4999503;28;20042;-80
2023/06/06 11:24:10;;;;;;;6.72;3.95;;;;;;;22.28;63.48;100696.25;4997098;28;20057;-80
2023/06/06 11:26:57;;;;;;;4.03;3.60;;;;;;;22.41;62.91;100700.22;4999764;28;20516;-79
2023/06/06 11:29:42;;;;;;;5.57;3.65;;;;;;;22.40;62.71;100697.88;4992627;28;20053;-79
2023/06/06 11:32:26;;;;;;;9.07;3.88;;;;;;;22.40;62.83;100697.88;4998757;28;20049;-79
2023/06/06 11:35:17;;;;;;;11.77;5.32;;;;;;;22.33;63.01;100697.84;4995651;28;20053;-79
2023/06/06 11:38:02;;;;;;;11.95;5.20;;;;;;;22.42;62.29;100695.47;5000147;28;20051;-81
2023/06/06 11:40:47;;;;;;;11.80;4.03;;;;;;;22.40;62.62;100693.09;4995345;28;20046;-81
2023/06/06 11:43:31;;;;;;;6.25;3.55;;;;;;;22.51;61.85;100693.09;4997694;28;20053;-80
2023/06/06 11:46:17;;;;;;;;;;;;;;;22.79;57.28;100695.88;4991833;28;20061;-79
2023/06/06 11:49:02;;;;;;;8.73;3.58;;;;;;;22.96;58.47;100697.00;4978452;28;19914;-79
2023/06/06 11:51:55;;;;;;;8.02;4.10;;;;;;;23.21;57.28;100688.66;4998003;28;20049;-80
2023/06/06 11:54:50;;;;;;;8.57;4.45;;;;;;;23.14;58.60;100691.44;4988195;28;20041;-80
2023/06/06 11:57:35;;;;;;;7.80;4.15;;;;;;;23.29;56.87;100687.41;4997925;28;20064;-79
2023/06/06 12:00:27;;;;;;;5.75;4.03;;;;;;;23.23;58.14;100694.56;4998140;28;20045;-79
2023/06/06 12:03:15;;;;;;;6.43;4.38;;;;;;;23.29;56.48;100692.97;5000838;28;20049;-80
2023/06/06 12:06:01;;;;;;;;;;;;;;;23.34;56.98;100689.78;4999621;28;20053;-81
2023/06/06 12:08:46;;;;;;;;;;;;;;;23.48;57.33;100692.53;4998745;28;19914;-81
2023/06/06 12:11:32;;;;;;;;;;;;;;;23.77;55.63;100680.06;4993904;28;20377;-81
2023/06/06 12:14:17;;;;;;;;;;;;;;;23.29;57.14;100684.66;4994237;28;19914;-81
2023/06/06 12:17:02;;;;;;;;;;;;;;;23.60;55.85;100686.53;4993397;28;19913;-81
2023/06/06 12:19:52;;;;;;;;;;;;;;;23.43;56.81;100684.56;4993053;28;20296;-82
2023/06/06 12:22:37;;;;;;;;;;;;;;;23.16;58.41;100683.50;4994347;28;19913;-82
2023/06/06 12:25:27;;;;;;;;;;;;;;;23.54;56.29;100690.13;4993869;28;20390;-82
2023/06/06 12:28:12;;;;;;;;;;;;;;;23.15;57.47;100684.69;4982939;28;19913;-81
2023/06/06 12:30:57;;;;;;;;;;;;;;;23.56;56.05;100680.22;4991370;28;19918;-82
2023/06/06 12:33:45;;;;;;;;;;;;;;;23.19;57.51;100677.16;4989976;28;19914;-82
2023/06/06 12:36:30;;;;;;;;;;;;;;;23.30;58.67;100684.25;4994044;28;19914;-82
2023/06/06 12:39:14;;;;;;;;;;;;;;;23.59;55.44;100668.28;4996888;28;19914;-83
2023/06/06 12:41:59;;;;;;;;;;;;;;;22.91;58.58;100676.03;4997487;28;19918;-82
2023/06/06 12:44:43;;;;;;;;;;;;;;;23.37;55.92;100673.09;4979854;28;19913;-82
2023/06/06 12:47:28;;;;;;;;;;;;;;;23.20;57.16;100673.19;4990964;28;19922;-82
2023/06/06 12:50:12;;;;;;;;;;;;;;;23.15;57.78;100668.84;4996576;28;19917;-82
2023/06/06 12:52:57;;;;;;;;;;;;;;;23.14;57.57;100669.25;5001866;28;19914;-81
2023/06/06 12:55:43;;;;;;;;;;;;;;;22.88;58.77;100668.53;4998633;28;19913;-81
2023/06/06 12:58:27;;;;;;;;;;;;;;;22.57;60.19;100669.31;4996496;28;19914;-81
2023/06/06 13:01:12;;;;;;;;;;;;;;;22.64;60.38;100658.25;4997339;28;19914;-81
2023/06/06 13:03:57;;;;;;;;;;;;;;;22.83;59.17;100657.84;4998838;28;19914;-81
2023/06/06 13:06:41;;;;;;;;;;;;;;;22.99;58.63;100652.66;4998497;28;19913;-81
2023/06/06 13:09:27;;;;;;;;;;;;;;;22.86;58.75;100648.69;5000362;28;19917;-81
2023/06/06 13:12:13;;;;;;;;;;;;;;;22.73;59.04;100650.34;4997818;28;19913;-81
2023/06/06 13:14:57;;;;;;;;;;;;;;;22.77;59.42;100653.88;4998190;28;19914;-81
2023/06/06 13:17:42;;;;;;;;;;;;;;;22.92;58.81;100649.88;4996454;28;19914;-81
2023/06/06 13:20:26;;;;;;;;;;;;;;;23.17;57.68;100660.09;4997610;28;20389;-82
2023/06/06 13:23:11;;;;;;;;;;;;;;;23.28;56.43;100644.22;4996506;28;19914;-81
2023/06/06 13:25:56;;;;;;;;;;;;;;;23.34;56.24;100645.38;4997005;28;20275;-81
2023/06/06 13:28:40;;;;;;;;;;;;;;;23.72;54.34;100652.72;4985242;28;19913;-81
2023/06/06 13:31:25;;;;;;;;;;;;;;;23.84;54.79;100646.69;4997901;28;19918;-81
2023/06/06 13:34:10;;;;;;;;;;;;;;;23.81;53.64;100639.19;4998232;28;20004;-81
2023/06/06 13:36:55;;;;;;;;;;;;;;;23.96;53.76;100641.88;4985567;28;20394;-81
2023/06/06 13:39:39;;;;;;;;;;;;;;;23.45;55.45;100646.16;4996602;28;19913;-82